Time;durP1;ratioP1;P1;durP2;ratioP2;P2;SDS_P1;SDS_P2;PMS_P1;PMS_P2;Temp;Humidity;BMP_temperature;BMP_pressure;BME280_temperature;BME280_humidity;BME280_pressure;Samples;Min_cycle;Max_cycle;Signal;HPM_P1;HPM_P2
2023/01/18 00:00:27;;;;;;;;;;;9.00;99.90;;;;;;5089560;28;20511;-63
2023/01/18 00:02:53;;;;;;;;;;;9.10;99.90;;;;;;5091472;28;20450;-64
2023/01/18 00:05:21;;;;;;;;;;;9.10;99.90;;;;;;5108620;28;20445;-64
2023/01/18 00:07:47;;;;;;;;;;;9.20;99.90;;;;;;5099871;28;19915;-65
2023/01/18 00:10:13;;;;;;;;;;;9.10;99.90;;;;;;5090241;28;19919;-65
2023/01/18 00:12:38;;;;;;;;;;;9.10;99.90;;;;;;5083796;28;19973;-64
2023/01/18 00:15:04;;;;;;;;;;;9.10;99.90;;;;;;5075045;28;19927;-65
2023/01/18 00:17:30;;;;;;;;;;;9.10;99.90;;;;;;5083175;28;19959;-65
2023/01/18 00:19:55;;;;;;;;;;;9.00;99.90;;;;;;5102273;28;20417;-65
2023/01/18 00:22:21;;;;;;;;;;;9.10;99.90;;;;;;5097817;28;19912;-64
2023/01/18 00:24:46;;;;;;;;;;;9.10;99.90;;;;;;5068230;28;20355;-64
2023/01/18 00:27:12;;;;;;;;;;;9.10;99.90;;;;;;5081385;28;19931;-64
2023/01/18 00:29:37;;;;;;;;;;;9.10;99.90;;;;;;5071260;28;19908;-64
2023/01/18 00:32:04;;;;;;;;;;;9.10;99.90;;;;;;5089986;28;19927;-64
2023/01/18 00:34:29;;;;;;;;;;;9.10;99.90;;;;;;5060031;28;19919;-64
2023/01/18 00:36:55;;;;;;;;;;;9.10;99.90;;;;;;5087612;28;19912;-64
2023/01/18 00:39:21;;;;;;;;;;;9.10;99.90;;;;;;5089955;28;20249;-64
2023/01/18 00:44:30;;;;;;;;;;;9.10;99.90;;;;;;5093776;28;19980;-65
2023/01/18 00:46:56;;;;;;;;;;;9.00;99.90;;;;;;5086431;28;20006;-64
2023/01/18 00:49:22;;;;;;;;;;;9.00;99.90;;;;;;5071761;28;20013;-65
2023/01/18 00:51:48;;;;;;;;;;;9.00;99.90;;;;;;5057520;28;20488;-65
2023/01/18 00:54:14;;;;;;;;;;;9.00;99.90;;;;;;5071556;28;20003;-64
2023/01/18 00:56:39;;;;;;;;;;;9.00;99.90;;;;;;5073373;28;19920;-64
2023/01/18 00:59:05;;;;;;;;;;;9.00;99.90;;;;;;5059251;28;20015;-64
2023/01/18 01:01:30;;;;;;;;;;;9.00;99.90;;;;;;5074259;28;20242;-65
2023/01/18 01:06:43;;;;;;;;;;;9.00;99.90;;;;;;5074689;28;20721;-65
2023/01/18 01:09:13;;;;;;;;;;;8.90;99.90;;;;;;5060051;28;19912;-64
2023/01/18 01:11:39;;;;;;;;;;;8.90;99.90;;;;;;5064739;28;19916;-64
2023/01/18 01:27:45;;;;;;;;;;;8.80;99.90;;;;;;5075451;28;20067;-64
2023/01/18 01:30:11;;;;;;;;;;;8.90;99.90;;;;;;5063999;28;20520;-64
2023/01/18 01:32:36;;;;;;;;;;;8.90;99.90;;;;;;5076347;28;19955;-64
2023/01/18 01:35:02;;;;;;;;;;;8.90;99.90;;;;;;5063224;28;19992;-64
2023/01/18 01:37:27;;;;;;;;;;;8.90;99.90;;;;;;5078008;28;19928;-64
2023/01/18 01:39:53;;;;;;;;;;;8.90;99.90;;;;;;5061071;28;19920;-64
2023/01/18 01:42:18;;;;;;;;;;;8.90;99.90;;;;;;5077231;28;19912;-64
2023/01/18 01:44:46;;;;;;;;;;;8.90;99.90;;;;;;5077823;28;19912;-64
2023/01/18 01:47:16;;;;;;;;;;;8.90;99.90;;;;;;5080382;28;19926;-63
2023/01/18 01:49:44;;;;;;;;;;;8.90;99.90;;;;;;5063290;28;20389;-64
2023/01/18 01:52:10;;;;;;;;;;;8.90;99.90;;;;;;5064323;28;19927;-64
2023/01/18 01:54:39;;;;;;;;;;;8.90;99.90;;;;;;5077317;28;19917;-64
2023/01/18 01:57:21;;;;;;;;;;;8.80;99.90;;;;;;5075590;28;19913;-64
2023/01/18 01:59:54;;;;;;;;;;;8.80;99.90;;;;;;5079184;28;19920;-64
2023/01/18 02:02:19;;;;;;;;;;;8.70;99.90;;;;;;5079326;28;19912;-65
2023/01/18 02:04:45;;;;;;;;;;;8.60;99.90;;;;;;5078782;28;20381;-65
2023/01/18 02:07:11;;;;;;;;;;;8.60;99.90;;;;;;5061549;28;19923;-64
2023/01/18 02:09:37;;;;;;;;;;;8.60;99.90;;;;;;5077580;28;21979;-64
2023/01/18 02:12:03;;;;;;;;;;;8.60;99.90;;;;;;5063718;28;19928;-64
2023/01/18 02:14:29;;;;;;;;;;;8.60;99.90;;;;;;5079867;28;19912;-64
2023/01/18 02:16:58;;;;;;;;;;;8.60;99.90;;;;;;5062512;28;19919;-64
2023/01/18 02:19:41;;;;;;;;;;;8.60;99.90;;;;;;5100094;28;19916;-65
2023/01/18 02:22:26;;;;;;;;;;;8.60;99.90;;;;;;5112737;28;20229;-64
2023/01/18 02:24:54;;;;;;;;;;;8.60;99.90;;;;;;5091145;28;19922;-64
2023/01/18 02:27:21;;;;;;;;;;;8.60;99.90;;;;;;5092141;28;20346;-63
2023/01/18 02:30:06;;;;;;;;;;;8.50;99.90;;;;;;5072316;28;19970;-63
2023/01/18 02:32:35;;;;;;;;;;;8.50;99.90;;;;;;5088781;28;19912;-63
2023/01/18 02:35:06;;;;;;;;;;;8.50;99.90;;;;;;5070334;28;20405;-63
2023/01/18 02:37:34;;;;;;;;;;;8.50;99.90;;;;;;5083320;28;19947;-63
2023/01/18 02:40:08;;;;;;;;;;;8.40;99.90;;;;;;5092245;28;19915;-65
2023/01/18 02:48:06;;;;;;;;;;;8.50;99.90;;;;;;5084164;28;20022;-64
2023/01/18 02:50:32;;;;;;;;;;;8.50;99.90;;;;;;5062719;28;19941;-63
2023/01/18 02:52:58;;;;;;;;;;;8.50;99.90;;;;;;5080559;28;19951;-63
2023/01/18 02:55:23;;;;;;;;;;;8.60;99.90;;;;;;5081892;28;20014;-63
2023/01/18 02:57:50;;;;;;;;;;;8.60;99.90;;;;;;5075757;28;19916;-63
2023/01/18 03:00:17;;;;;;;;;;;8.70;99.90;;;;;;5063182;28;19931;-63
2023/01/18 03:02:45;;;;;;;;;;;8.60;99.90;;;;;;5079415;28;19920;-64
2023/01/18 03:05:11;;;;;;;;;;;8.60;99.90;;;;;;5076193;28;19912;-63
2023/01/18 03:07:47;;;;;;;;;;;8.60;99.90;;;;;;5068279;28;19916;-64
2023/01/18 03:10:13;;;;;;;;;;;8.60;99.90;;;;;;5101232;28;19912;-63
2023/01/18 03:12:59;;;;;;;;;;;8.60;99.90;;;;;;5088429;28;19915;-64
2023/01/18 03:15:24;;;;;;;;;;;8.60;99.90;;;;;;5066329;28;19927;-63
2023/01/18 03:17:51;;;;;;;;;;;8.50;99.90;;;;;;5073218;28;19916;-64
2023/01/18 03:20:24;;;;;;;;;;;8.50;99.90;;;;;;5058593;28;19912;-64
2023/01/18 03:25:48;;;;;;;;;;;8.60;99.90;;;;;;5074984;28;19956;-64
2023/01/18 03:34:01;;;;;;;;;;;8.60;99.90;;;;;;5073816;28;19967;-64
2023/01/18 03:36:35;;;;;;;;;;;8.60;99.90;;;;;;5075117;28;20025;-64
2023/01/18 03:39:03;;;;;;;;;;;8.70;99.90;;;;;;5073325;28;19986;-64
2023/01/18 03:41:31;;;;;;;;;;;8.70;99.90;;;;;;5058734;28;19934;-63
2023/01/18 03:43:58;;;;;;;;;;;8.60;99.90;;;;;;5074111;28;19922;-63
2023/01/18 03:46:25;;;;;;;;;;;8.60;99.90;;;;;;5099422;28;20011;-62
2023/01/18 03:48:51;;;;;;;;;;;8.60;99.90;;;;;;5077728;28;19923;-63
2023/01/18 03:51:25;;;;;;;;;;;8.60;99.90;;;;;;5063611;28;19912;-63
2023/01/18 03:54:14;;;;;;;;;;;8.50;99.90;;;;;;5090584;28;19958;-63
2023/01/18 03:56:42;;;;;;;;;;;8.50;99.90;;;;;;5090167;28;19999;-63
2023/01/18 03:59:08;;;;;;;;;;;8.40;99.90;;;;;;5073674;28;19916;-63
2023/01/18 04:01:34;;;;;;;;;;;8.50;99.90;;;;;;5088580;28;19912;-64
2023/01/18 04:04:00;;;;;;;;;;;8.50;99.90;;;;;;5071311;28;20325;-63
2023/01/18 04:06:25;;;;;;;;;;;8.50;99.90;;;;;;5071289;28;19916;-63
2023/01/18 04:08:51;;;;;;;;;;;8.50;99.90;;;;;;5089890;28;19916;-63
2023/01/18 04:11:17;;;;;;;;;;;8.50;99.90;;;;;;5090280;28;20227;-64
2023/01/18 04:13:43;;;;;;;;;;;8.40;99.90;;;;;;5089709;28;20007;-63
2023/01/18 04:16:08;;;;;;;;;;;8.40;99.90;;;;;;5076639;28;20517;-63
2023/01/18 04:18:34;;;;;;;;;;;8.40;99.90;;;;;;5058647;28;20010;-62
2023/01/18 04:21:00;;;;;;;;;;;8.40;99.90;;;;;;5089641;28;19919;-62
2023/01/18 04:23:26;;;;;;;;;;;8.30;99.90;;;;;;5077643;28;19920;-63
2023/01/18 04:25:52;;;;;;;;;;;8.30;99.90;;;;;;5062643;28;19916;-68
2023/01/18 04:28:24;;;;;;;;;;;8.20;99.90;;;;;;5074078;28;20087;-65
2023/01/18 04:30:53;;;;;;;;;;;8.20;99.90;;;;;;5075618;28;20393;-62
2023/01/18 04:33:19;;;;;;;;;;;8.30;99.90;;;;;;5078190;28;19967;-65
2023/01/18 04:35:48;;;;;;;;;;;8.30;99.90;;;;;;5063730;28;20018;-64
2023/01/18 04:38:14;;;;;;;;;;;8.30;99.90;;;;;;5058994;28;19924;-63
2023/01/18 04:40:39;;;;;;;;;;;8.30;99.90;;;;;;5074321;28;20259;-63
2023/01/18 04:43:05;;;;;;;;;;;8.30;99.90;;;;;;5076031;28;19935;-64
2023/01/18 04:45:31;;;;;;;;;;;8.30;99.90;;;;;;5075748;28;19954;-63
2023/01/18 04:47:56;;;;;;;;;;;8.30;99.90;;;;;;5074048;28;20262;-63
2023/01/18 04:50:22;;;;;;;;;;;8.30;99.90;;;;;;5075523;28;19916;-62
2023/01/18 04:52:48;;;;;;;;;;;8.30;99.90;;;;;;5075652;28;19919;-63
2023/01/18 04:55:14;;;;;;;;;;;8.30;99.90;;;;;;5075574;28;20054;-62
2023/01/18 04:57:43;;;;;;;;;;;8.30;99.90;;;;;;5070324;28;20441;-62
2023/01/18 05:00:09;;;;;;;;;;;8.30;99.90;;;;;;5074282;28;19939;-63
2023/01/18 05:02:35;;;;;;;;;;;8.40;99.90;;;;;;5084620;28;19958;-64
2023/01/18 05:05:00;;;;;;;;;;;8.30;99.90;;;;;;5099258;28;19938;-64
2023/01/18 05:07:30;;;;;;;;;;;8.40;99.90;;;;;;5091122;28;21362;-63
2023/01/18 05:09:55;;;;;;;;;;;8.30;99.90;;;;;;5055870;28;20548;-64
2023/01/18 05:12:22;;;;;;;;;;;8.30;99.90;;;;;;5074751;28;19916;-64
2023/01/18 05:14:47;;;;;;;;;;;8.30;99.90;;;;;;5078306;28;19912;-63
2023/01/18 05:17:13;;;;;;;;;;;8.30;99.90;;;;;;5072935;28;19927;-63
2023/01/18 05:19:39;;;;;;;;;;;8.30;99.90;;;;;;5058722;28;19916;-63
2023/01/18 05:22:05;;;;;;;;;;;8.40;99.90;;;;;;5072187;28;20024;-63
2023/01/18 05:24:31;;;;;;;;;;;8.40;99.90;;;;;;5077094;28;20028;-63
2023/01/18 05:27:00;;;;;;;;;;;8.40;99.90;;;;;;5077800;28;20346;-64
2023/01/18 05:29:26;;;;;;;;;;;8.40;99.90;;;;;;5104714;28;19955;-65
2023/01/18 05:31:52;;;;;;;;;;;8.40;99.90;;;;;;5111972;28;19928;-64
2023/01/18 05:34:18;;;;;;;;;;;8.50;99.90;;;;;;5082553;28;19924;-64
2023/01/18 05:36:43;;;;;;;;;;;8.40;99.90;;;;;;5084489;28;20043;-65
2023/01/18 05:39:10;;;;;;;;;;;8.50;99.90;;;;;;5085241;28;19937;-64
2023/01/18 05:41:36;;;;;;;;;;;8.50;99.90;;;;;;5090713;28;19996;-64
2023/01/18 05:44:02;;;;;;;;;;;8.60;99.90;;;;;;5110142;28;20393;-65
2023/01/18 05:46:27;;;;;;;;;;;8.50;99.90;;;;;;5097211;28;19916;-64
2023/01/18 05:48:57;;;;;;;;;;;8.50;99.90;;;;;;5077639;28;19908;-64
2023/01/18 05:51:23;;;;;;;;;;;8.50;99.90;;;;;;5088103;28;20321;-63
2023/01/18 05:53:48;;;;;;;;;;;8.60;99.90;;;;;;5070960;28;19912;-65
2023/01/18 05:56:14;;;;;;;;;;;8.50;99.90;;;;;;5089028;28;20417;-65
2023/01/18 05:58:40;;;;;;;;;;;8.50;99.90;;;;;;5080739;28;19916;-66
2023/01/18 06:01:08;;;;;;;;;;;8.50;99.90;;;;;;5093105;28;19908;-64
2023/01/18 06:03:34;;;;;;;;;;;8.50;99.90;;;;;;5085395;28;20015;-64
2023/01/18 06:06:00;;;;;;;;;;;8.40;99.90;;;;;;5085910;28;20003;-64
2023/01/18 06:08:26;;;;;;;;;;;8.60;99.90;;;;;;5075569;28;19927;-63
2023/01/18 06:10:53;;;;;;;;;;;8.50;99.90;;;;;;5092638;28;19912;-64
2023/01/18 06:13:19;;;;;;;;;;;8.40;99.90;;;;;;5091521;28;19919;-64
2023/01/18 06:15:45;;;;;;;;;;;8.40;99.90;;;;;;5055775;28;19912;-64
2023/01/18 06:18:11;;;;;;;;;;;8.30;99.90;;;;;;5078798;28;20019;-64
2023/01/18 06:20:37;;;;;;;;;;;8.30;99.90;;;;;;5080770;28;19955;-64
2023/01/18 06:23:02;;;;;;;;;;;8.40;99.90;;;;;;5078029;28;19920;-65
2023/01/18 06:25:28;;;;;;;;;;;8.40;99.90;;;;;;5073982;28;19943;-64
2023/01/18 06:27:53;;;;;;;;;;;8.30;99.90;;;;;;5076912;28;19924;-63
2023/01/18 06:30:19;;;;;;;;;;;8.40;99.90;;;;;;5103855;28;20011;-64
2023/01/18 06:32:47;;;;;;;;;;;8.40;99.90;;;;;;5098718;28;20064;-64
2023/01/18 06:35:13;;;;;;;;;;;8.30;99.90;;;;;;5103141;28;20277;-65
2023/01/18 06:37:38;;;;;;;;;;;8.30;99.90;;;;;;5106821;28;19912;-64
2023/01/18 06:40:04;;;;;;;;;;;8.20;99.90;;;;;;5086414;28;19955;-64
2023/01/18 06:42:30;;;;;;;;;;;8.20;99.90;;;;;;5091129;28;20572;-65
2023/01/18 06:44:56;;;;;;;;;;;8.30;99.90;;;;;;5090075;28;19999;-64
2023/01/18 06:47:37;;;;;;;;;;;8.40;99.90;;;;;;5097760;28;19987;-65
2023/01/18 06:50:07;;;;;;;;;;;8.40;99.90;;;;;;5095308;28;19918;-65
2023/01/18 06:52:35;;;;;;;;;;;8.30;99.90;;;;;;5063279;28;19999;-64
2023/01/18 06:55:02;;;;;;;;;;;8.40;99.90;;;;;;5067760;28;19920;-63
2023/01/18 06:57:28;;;;;;;;;;;8.30;99.90;;;;;;5099135;28;19912;-64
2023/01/18 06:59:56;;;;;;;;;;;8.20;99.90;;;;;;5103124;28;20380;-67
2023/01/18 07:02:23;;;;;;;;;;;8.30;99.90;;;;;;5079435;28;20041;-65
2023/01/18 07:04:49;;;;;;;;;;;8.30;99.90;;;;;;5103730;28;20392;-66
2023/01/18 07:07:16;;;;;;;;;;;8.30;99.90;;;;;;5075268;28;19916;-63
2023/01/18 07:09:43;;;;;;;;;;;8.30;99.90;;;;;;5097432;28;20441;-65
2023/01/18 07:12:09;;;;;;;;;;;8.40;99.90;;;;;;5090270;28;19916;-65
2023/01/18 07:14:36;;;;;;;;;;;8.40;99.90;;;;;;5068653;28;19958;-65
2023/01/18 07:17:03;;;;;;;;;;;8.50;99.90;;;;;;5085127;28;20294;-61
2023/01/18 07:19:30;;;;;;;;;;;8.50;99.90;;;;;;5105861;28;20380;-62
2023/01/18 07:21:58;;;;;;;;;;;8.50;99.90;;;;;;5084535;28;20002;-56
2023/01/18 07:24:25;;;;;;;;;;;8.60;99.90;;;;;;5077420;28;20828;-56
2023/01/18 07:26:51;;;;;;;;;;;8.80;99.90;;;;;;5078979;28;19920;-55
2023/01/18 07:29:18;;;;;;;;;;;8.90;99.90;;;;;;5092530;28;19975;-59
2023/01/18 07:31:44;;;;;;;;;;;9.00;99.90;;;;;;5100804;28;20392;-59
2023/01/18 07:34:12;;;;;;;;;;;9.10;99.90;;;;;;5099049;28;20309;-57
2023/01/18 07:36:40;;;;;;;;;;;9.20;99.90;;;;;;5100544;28;19998;-56
2023/01/18 07:39:07;;;;;;;;;;;9.30;99.90;;;;;;5070835;28;19911;-54
2023/01/18 07:41:33;;;;;;;;;;;9.40;99.90;;;;;;5071161;28;19956;-61
2023/01/18 07:44:00;;;;;;;;;;;9.40;99.90;;;;;;5080444;28;20273;-60
2023/01/18 07:46:27;;;;;;;;;;;9.40;99.90;;;;;;5087942;28;20282;-55
2023/01/18 07:48:54;;;;;;;;;;;9.40;99.90;;;;;;5081124;28;20278;-56
2023/01/18 07:51:21;;;;;;;;;;;9.40;99.90;;;;;;5092419;28;19935;-65
2023/01/18 07:53:48;;;;;;;;;;;9.50;99.90;;;;;;5067701;28;19913;-57
2023/01/18 07:56:17;;;;;;;;;;;9.50;99.90;;;;;;5071641;28;20386;-56
2023/01/18 07:58:44;;;;;;;;;;;9.40;99.90;;;;;;5072826;28;19912;-61
2023/01/18 08:01:15;;;;;;;;;;;9.40;99.90;;;;;;5073381;28;20547;-61
2023/01/18 08:03:42;;;;;;;;;;;9.40;99.90;;;;;;5072476;28;19939;-61
2023/01/18 08:06:09;;;;;;;;;;;9.50;99.90;;;;;;5053041;28;19952;-60
2023/01/18 08:08:36;;;;;;;;;;;9.60;99.90;;;;;;5062128;28;19912;-63
2023/01/18 08:11:06;;;;;;;;;;;9.60;99.90;;;;;;5092543;28;20285;-58
2023/01/18 08:13:35;;;;;;;;;;;9.50;99.90;;;;;;5085157;28;20364;-62
2023/01/18 08:16:03;;;;;;;;;;;9.40;99.90;;;;;;5099839;28;19920;-63
2023/01/18 08:18:30;;;;;;;;;;;9.30;99.90;;;;;;5090531;28;20324;-63
2023/01/18 08:20:56;;;;;;;;;;;9.30;99.90;;;;;;5104734;28;20583;-62
2023/01/18 08:23:22;;;;;;;;;;;9.30;99.90;;;;;;5086107;28;19962;-60
2023/01/18 08:25:52;;;;;;;;;;;9.30;99.90;;;;;;5071016;28;19983;-62
2023/01/18 08:28:23;;;;;;;;;;;9.40;99.90;;;;;;5070399;28;19916;-63
2023/01/18 08:30:54;;;;;;;;;;;9.30;99.90;;;;;;5091364;28;19912;-62
2023/01/18 08:33:27;;;;;;;;;;;9.30;99.90;;;;;;5074359;28;20112;-60
2023/01/18 08:35:58;;;;;;;;;;;9.20;99.90;;;;;;5092341;28;19944;-60
2023/01/18 08:38:33;;;;;;;;;;;9.30;99.90;;;;;;5093654;28;19912;-61
2023/01/18 08:41:07;;;;;;;;;;;9.30;99.90;;;;;;5091042;28;19912;-63
2023/01/18 08:43:37;;;;;;;;;;;9.30;99.90;;;;;;5090124;28;19927;-63
2023/01/18 08:46:04;;;;;;;;;;;9.40;99.90;;;;;;5071647;28;20392;-64
2023/01/18 08:48:30;;;;;;;;;;;9.40;99.90;;;;;;5089856;28;20004;-64
2023/01/18 08:50:58;;;;;;;;;;;9.50;99.90;;;;;;5087288;28;19916;-63
2023/01/18 08:53:24;;;;;;;;;;;9.50;99.90;;;;;;5088003;28;19920;-62
2023/01/18 08:55:57;;;;;;;;;;;9.60;99.90;;;;;;5091153;28;19920;-63
2023/01/18 08:58:34;;;;;;;;;;;9.60;99.90;;;;;;5086222;28;19926;-60
2023/01/18 09:01:05;;;;;;;;;;;9.70;99.90;;;;;;5071257;28;20322;-60
2023/01/18 09:03:31;;;;;;;;;;;9.60;99.90;;;;;;5089700;28;19919;-62
2023/01/18 09:05:59;;;;;;;;;;;9.70;99.90;;;;;;5085748;28;19916;-62
2023/01/18 09:08:25;;;;;;;;;;;9.70;99.90;;;;;;5106659;28;19915;-63
2023/01/18 09:10:51;;;;;;;;;;;9.70;99.90;;;;;;5093266;28;20394;-62
2023/01/18 09:13:16;;;;;;;;;;;9.70;99.90;;;;;;5100007;28;19912;-62
2023/01/18 09:15:42;;;;;;;;;;;9.70;99.90;;;;;;5103806;28;19924;-61
2023/01/18 09:18:08;;;;;;;;;;;9.70;99.90;;;;;;5084969;28;20322;-61
2023/01/18 09:20:34;;;;;;;;;;;9.70;99.90;;;;;;5106611;28;19915;-62
2023/01/18 09:23:04;;;;;;;;;;;9.60;99.90;;;;;;5092225;28;19911;-62
2023/01/18 09:25:30;;;;;;;;;;;9.60;99.90;;;;;;5105212;28;19921;-62
2023/01/18 09:27:56;;;;;;;;;;;9.60;99.90;;;;;;5083814;28;19916;-63
2023/01/18 09:30:21;;;;;;;;;;;9.60;99.90;;;;;;5084651;28;19912;-62
2023/01/18 09:32:47;;;;;;;;;;;9.60;99.90;;;;;;5090102;28;20072;-63
2023/01/18 09:35:16;;;;;;;;;;;9.60;99.90;;;;;;5100827;28;19912;-66
2023/01/18 09:37:43;;;;;;;;;;;9.70;99.90;;;;;;5102563;28;19912;-64
2023/01/18 09:40:13;;;;;;;;;;;9.70;99.90;;;;;;5095382;28;20058;-64
2023/01/18 09:42:43;;;;;;;;;;;9.80;99.90;;;;;;5085514;28;19995;-61
2023/01/18 09:45:28;;;;;;;;;;;9.80;99.90;;;;;;5085745;28;19916;-62
2023/01/18 09:47:58;;;;;;;;;;;9.90;99.90;;;;;;5071539;28;19921;-62
2023/01/18 09:50:25;;;;;;;;;;;9.90;99.90;;;;;;5061582;28;20350;-62
2023/01/18 09:53:10;;;;;;;;;;;9.90;99.90;;;;;;5093100;28;19912;-62
2023/01/18 09:55:47;;;;;;;;;;;9.90;99.90;;;;;;5093074;28;19974;-64
2023/01/18 09:58:13;;;;;;;;;;;9.90;99.90;;;;;;5075008;28;20011;-63
2023/01/18 10:00:40;;;;;;;;;;;9.90;99.90;;;;;;5089657;28;19999;-64
2023/01/18 10:03:11;;;;;;;;;;;10.00;99.90;;;;;;5087027;28;19908;-63
2023/01/18 10:05:40;;;;;;;;;;;10.00;99.90;;;;;;5072075;28;20115;-62
2023/01/18 10:08:12;;;;;;;;;;;10.00;99.90;;;;;;5054822;28;20066;-61
2023/01/18 10:10:58;;;;;;;;;;;10.10;99.90;;;;;;5072872;28;19908;-62
2023/01/18 10:13:23;;;;;;;;;;;10.10;99.90;;;;;;5071001;28;19920;-64
2023/01/18 10:15:49;;;;;;;;;;;10.10;99.90;;;;;;5080007;28;19938;-59
2023/01/18 10:18:15;;;;;;;;;;;10.30;99.90;;;;;;5096539;28;20332;-62
2023/01/18 10:20:45;;;;;;;;;;;10.30;99.90;;;;;;5099056;28;19943;-62
2023/01/18 10:23:15;;;;;;;;;;;10.30;99.90;;;;;;5081644;28;19912;-66
2023/01/18 10:25:53;;;;;;;;;;;10.40;99.90;;;;;;5085045;28;19912;-64
2023/01/18 10:28:25;;;;;;;;;;;10.40;99.90;;;;;;5095387;28;19924;-61
2023/01/18 10:30:54;;;;;;;;;;;10.40;99.90;;;;;;5106707;28;19914;-61
2023/01/18 10:33:21;;;;;;;;;;;10.30;99.90;;;;;;5091779;28;19951;-56
2023/01/18 10:35:49;;;;;;;;;;;10.30;99.90;;;;;;5072729;28;19919;-64
2023/01/18 10:38:17;;;;;;;;;;;10.40;99.90;;;;;;5096381;28;19912;-64
2023/01/18 10:40:46;;;;;;;;;;;10.40;99.90;;;;;;5105841;28;19962;-63
2023/01/18 10:43:14;;;;;;;;;;;10.30;99.90;;;;;;5099859;28;19927;-63
2023/01/18 10:45:39;;;;;;;;;;;10.40;99.90;;;;;;5095426;28;19916;-62
2023/01/18 10:48:24;;;;;;;;;;;10.40;99.90;;;;;;5098231;28;20402;-64
2023/01/18 10:50:51;;;;;;;;;;;10.30;99.90;;;;;;5100869;28;19916;-64
2023/01/18 10:53:30;;;;;;;;;;;10.30;99.90;;;;;;5087456;28;19919;-65
2023/01/18 10:56:00;;;;;;;;;;;10.30;99.90;;;;;;5101398;28;19919;-65
2023/01/18 10:58:29;;;;;;;;;;;10.40;99.90;;;;;;5107429;28;19976;-63
2023/01/18 11:00:55;;;;;;;;;;;10.30;99.90;;;;;;5106441;28;19938;-64
2023/01/18 11:03:22;;;;;;;;;;;10.40;99.90;;;;;;5079145;28;19912;-65
2023/01/18 11:05:47;;;;;;;;;;;10.30;99.90;;;;;;5067588;28;20288;-65
2023/01/18 11:08:19;;;;;;;;;;;10.30;99.90;;;;;;5087492;28;19916;-65
2023/01/18 11:10:45;;;;;;;;;;;10.40;99.90;;;;;;5090572;28;19911;-63
2023/01/18 11:13:29;;;;;;;;;;;10.40;99.90;;;;;;5100864;28;20002;-66
2023/01/18 11:16:11;;;;;;;;;;;10.50;99.90;;;;;;5098742;28;19917;-67
2023/01/18 11:18:37;;;;;;;;;;;10.50;99.90;;;;;;5089882;28;20273;-65
2023/01/18 11:21:07;;;;;;;;;;;10.40;99.90;;;;;;5092913;28;20002;-65
2023/01/18 11:23:37;;;;;;;;;;;10.40;99.90;;;;;;5095003;28;19912;-68
2023/01/18 11:26:17;;;;;;;;;;;10.30;99.90;;;;;;5072000;28;20007;-65
2023/01/18 11:28:48;;;;;;;;;;;10.30;99.90;;;;;;5062987;28;20314;-63
2023/01/18 11:31:26;;;;;;;;;;;10.20;99.90;;;;;;5089883;28;19965;-68
2023/01/18 11:34:05;;;;;;;;;;;10.20;99.90;;;;;;5089459;28;20046;-67
2023/01/18 11:36:36;;;;;;;;;;;10.10;99.90;;;;;;5074545;28;20435;-65
2023/01/18 11:39:26;;;;;;;;;;;10.00;99.90;;;;;;5072728;28;19916;-64
2023/01/18 11:42:14;;;;;;;;;;;9.90;99.90;;;;;;5090823;28;20366;-65
2023/01/18 11:44:52;;;;;;;;;;;9.80;99.90;;;;;;5070257;28;19939;-65
2023/01/18 11:47:38;;;;;;;;;;;9.80;99.90;;;;;;5089108;28;20406;-62
2023/01/18 11:50:12;;;;;;;;;;;9.70;99.90;;;;;;5091694;28;20448;-68
2023/01/18 11:52:45;;;;;;;;;;;9.50;99.90;;;;;;5091238;28;19916;-64
2023/01/18 11:55:25;;;;;;;;;;;9.50;99.90;;;;;;5087463;28;20370;-65
2023/01/18 11:57:52;;;;;;;;;;;9.50;99.90;;;;;;5091451;28;20263;-65
2023/01/18 12:00:18;;;;;;;;;;;9.40;99.90;;;;;;5080531;28;19919;-63
2023/01/18 12:02:44;;;;;;;;;;;9.50;99.90;;;;;;5066999;28;20447;-65
2023/01/18 12:05:13;;;;;;;;;;;9.30;99.90;;;;;;5096550;28;20704;-65
2023/01/18 12:07:39;;;;;;;;;;;9.20;99.90;;;;;;5100950;28;20385;-66
2023/01/18 12:10:09;;;;;;;;;;;9.10;99.90;;;;;;5090833;28;19912;-63
2023/01/18 12:13:00;;;;;;;;;;;9.00;99.90;;;;;;5070974;28;20499;-63
2023/01/18 12:15:44;;;;;;;;;;;8.90;99.90;;;;;;5081478;28;19916;-63
2023/01/18 12:18:39;;;;;;;;;;;8.80;99.90;;;;;;5093794;28;19915;-67
2023/01/18 12:21:12;;;;;;;;;;;8.70;99.90;;;;;;5079863;28;19938;-65
2023/01/18 12:23:43;;;;;;;;;;;8.70;99.90;;;;;;5084740;28;19979;-67
2023/01/18 12:26:27;;;;;;;;;;;8.70;99.90;;;;;;5068307;28;19912;-64
2023/01/18 12:28:59;;;;;;;;;;;8.60;99.90;;;;;;5084164;28;19986;-64
2023/01/18 12:31:43;;;;;;;;;;;8.70;99.90;;;;;;5101567;28;19916;-66
2023/01/18 12:34:22;;;;;;;;;;;8.70;99.90;;;;;;5074968;28;19912;-63
2023/01/18 12:37:03;;;;;;;;;;;8.70;99.90;;;;;;5089643;28;19928;-65
2023/01/18 12:39:40;;;;;;;;;;;8.70;99.90;;;;;;5091162;28;19911;-65
2023/01/18 12:42:13;;;;;;;;;;;8.60;99.90;;;;;;5096768;28;19912;-64
2023/01/18 12:44:57;;;;;;;;;;;8.60;99.90;;;;;;5067385;28;19912;-67
2023/01/18 12:47:33;;;;;;;;;;;8.60;99.90;;;;;;5107777;28;19953;-65
2023/01/18 12:50:01;;;;;;;;;;;8.60;99.90;;;;;;5102761;28;19908;-66
2023/01/18 12:52:28;;;;;;;;;;;8.60;99.90;;;;;;5094726;28;19912;-66
2023/01/18 12:54:56;;;;;;;;;;;8.70;99.90;;;;;;5090242;28;19916;-67
2023/01/18 12:57:30;;;;;;;;;;;8.70;99.90;;;;;;5091417;28;19912;-65
2023/01/18 13:00:09;;;;;;;;;;;8.70;99.90;;;;;;5089239;28;19947;-66
2023/01/18 13:02:49;;;;;;;;;;;8.70;99.90;;;;;;5076272;28;20351;-66
2023/01/18 13:05:36;;;;;;;;;;;8.80;99.90;;;;;;5092457;28;19916;-64
2023/01/18 13:08:07;;;;;;;;;;;8.90;99.90;;;;;;5059732;28;20360;-66
2023/01/18 13:10:39;;;;;;;;;;;8.90;99.90;;;;;;5070274;28;19912;-67
2023/01/18 13:13:17;;;;;;;;;;;8.90;99.90;;;;;;5061802;28;19958;-66
2023/01/18 13:15:51;;;;;;;;;;;9.00;99.90;;;;;;5076793;28;19917;-65
2023/01/18 13:18:20;;;;;;;;;;;9.00;99.90;;;;;;5087329;28;19912;-63
2023/01/18 13:20:46;;;;;;;;;;;9.00;99.90;;;;;;5079475;28;19916;-63
2023/01/18 13:23:17;;;;;;;;;;;8.90;99.90;;;;;;5086745;28;20408;-64
2023/01/18 13:26:05;;;;;;;;;;;8.90;99.90;;;;;;5081207;28;21238;-65
2023/01/18 13:28:35;;;;;;;;;;;8.80;99.90;;;;;;5074102;28;20297;-67
2023/01/18 13:31:15;;;;;;;;;;;8.90;99.90;;;;;;5089294;28;20423;-66
2023/01/18 13:33:46;;;;;;;;;;;8.90;99.90;;;;;;5073891;28;19916;-65
2023/01/18 13:36:24;;;;;;;;;;;8.90;99.90;;;;;;5080691;28;20007;-66
2023/01/18 13:39:06;;;;;;;;;;;8.80;99.90;;;;;;5082376;28;19919;-61
2023/01/18 13:41:32;;;;;;;;;;;8.70;99.90;;;;;;5082647;28;19931;-64
2023/01/18 13:44:03;;;;;;;;;;;8.70;99.90;;;;;;5087482;28;19916;-64
2023/01/18 13:46:38;;;;;;;;;;;8.70;99.90;;;;;;5074954;28;19919;-62
2023/01/18 13:49:21;;;;;;;;;;;8.70;99.90;;;;;;5055802;28;19913;-63
2023/01/18 13:51:50;;;;;;;;;;;8.70;99.90;;;;;;5090190;28;19912;-64
2023/01/18 13:54:19;;;;;;;;;;;8.80;99.90;;;;;;5093257;28;20045;-65
2023/01/18 13:57:10;;;;;;;;;;;8.80;99.90;;;;;;5090335;28;19912;-65
2023/01/18 13:59:38;;;;;;;;;;;8.70;99.90;;;;;;5089472;28;19912;-66
2023/01/18 14:02:14;;;;;;;;;;;8.70;99.90;;;;;;5077717;28;19911;-66
2023/01/18 14:04:43;;;;;;;;;;;8.70;99.90;;;;;;5086968;28;19912;-65
2023/01/18 14:07:25;;;;;;;;;;;8.70;99.90;;;;;;5072581;28;20420;-64
2023/01/18 14:09:55;;;;;;;;;;;8.60;99.90;;;;;;5062358;28;19919;-64
2023/01/18 14:12:41;;;;;;;;;;;8.50;99.90;;;;;;5085262;28;19912;-64
2023/01/18 14:15:34;;;;;;;;;;;8.50;99.90;;;;;;5079106;28;20033;-64
2023/01/18 14:18:06;;;;;;;;;;;8.50;99.90;;;;;;5072667;28;19920;-64
2023/01/18 14:20:37;;;;;;;;;;;8.50;99.90;;;;;;5090744;28;19920;-65
2023/01/18 14:23:12;;;;;;;;;;;8.50;99.90;;;;;;5074703;28;19916;-64
2023/01/18 14:25:59;;;;;;;;;;;8.50;99.90;;;;;;5071967;28;19919;-67
2023/01/18 14:28:38;;;;;;;;;;;8.60;99.90;;;;;;5090647;28;19915;-65
2023/01/18 14:31:13;;;;;;;;;;;8.60;99.90;;;;;;5094064;28;19923;-67
2023/01/18 14:33:44;;;;;;;;;;;8.60;99.90;;;;;;5092495;28;19932;-65
2023/01/18 14:36:26;;;;;;;;;;;8.60;99.90;;;;;;5074682;28;19957;-66
2023/01/18 14:39:11;;;;;;;;;;;8.60;99.90;;;;;;5070294;28;19944;-65
2023/01/18 14:41:42;;;;;;;;;;;8.60;99.90;;;;;;5074125;28;19912;-64
2023/01/18 14:44:16;;;;;;;;;;;8.60;99.90;;;;;;5091407;28;19927;-66
2023/01/18 14:46:46;;;;;;;;;;;8.60;99.90;;;;;;5072328;28;19923;-65
2023/01/18 14:49:13;;;;;;;;;;;8.50;99.90;;;;;;5091159;28;19920;-65
2023/01/18 14:51:44;;;;;;;;;;;8.50;99.90;;;;;;5091128;28;19965;-65
2023/01/18 14:54:15;;;;;;;;;;;8.40;99.90;;;;;;5089321;28;19919;-66
2023/01/18 14:56:44;;;;;;;;;;;8.40;99.90;;;;;;5090628;28;19974;-65
2023/01/18 14:59:35;;;;;;;;;;;8.30;99.90;;;;;;5073518;28;19956;-64
2023/01/18 15:02:25;;;;;;;;;;;8.30;99.90;;;;;;5093112;28;19920;-65
2023/01/18 15:05:20;;;;;;;;;;;8.20;99.90;;;;;;5089586;28;19912;-65
2023/01/18 15:07:56;;;;;;;;;;;8.10;99.90;;;;;;5093378;28;19977;-65
2023/01/18 15:10:29;;;;;;;;;;;8.10;99.90;;;;;;5091657;28;20298;-65
2023/01/18 15:12:57;;;;;;;;;;;8.10;99.90;;;;;;5071625;28;20385;-66
2023/01/18 15:15:23;;;;;;;;;;;8.10;99.90;;;;;;5072497;28;19912;-65
2023/01/18 15:17:49;;;;;;;;;;;8.10;99.90;;;;;;5090742;28;19919;-65